createdAt,value
2017-10-26T00:00:24.292Z,0
2017-10-26T00:01:34.445Z,0
2017-10-26T00:02:44.920Z,0
2017-10-26T00:03:55.378Z,0
2017-10-26T00:05:05.859Z,0
2017-10-26T00:06:16.309Z,0
2017-10-26T00:07:26.417Z,0
2017-10-26T00:08:36.872Z,0
2017-10-26T00:09:47.326Z,0
2017-10-26T00:10:57.766Z,0
2017-10-26T00:12:07.876Z,0
2017-10-26T00:13:18.544Z,0
2017-10-26T00:14:29.018Z,0
2017-10-26T00:15:39.474Z,0
2017-10-26T00:16:50.133Z,0
2017-10-26T00:18:00.606Z,0
2017-10-26T00:19:10.780Z,0
2017-10-26T00:20:21.246Z,0
2017-10-26T00:21:31.701Z,0
2017-10-26T00:22:42.186Z,0
2017-10-26T00:23:52.622Z,0
2017-10-26T00:25:02.758Z,0
2017-10-26T00:26:13.270Z,0
2017-10-26T00:27:23.783Z,0
2017-10-26T00:28:34.282Z,0
2017-10-26T00:29:44.711Z,0
2017-10-26T00:30:55.194Z,0
2017-10-26T00:32:05.218Z,0
2017-10-26T00:33:15.976Z,0
2017-10-26T00:34:26.437Z,0
2017-10-26T00:35:36.895Z,0
2017-10-26T00:36:47.047Z,0
2017-10-26T00:37:57.524Z,0
2017-10-26T00:39:07.730Z,0
2017-10-26T00:40:18.197Z,0
2017-10-26T00:41:28.833Z,0
2017-10-26T00:42:39.373Z,0
2017-10-26T00:43:49.811Z,0
2017-10-26T00:45:00.398Z,0
2017-10-26T00:46:11.075Z,0
2017-10-26T00:47:21.588Z,0
2017-10-26T00:48:32.061Z,0
2017-10-26T00:49:42.181Z,0
2017-10-26T00:50:52.630Z,0
2017-10-26T00:52:02.672Z,0
2017-10-26T00:53:13.272Z,0
2017-10-26T00:54:23.751Z,0
2017-10-26T00:55:34.209Z,0
2017-10-26T00:56:44.656Z,0
2017-10-26T00:57:55.119Z,0
2017-10-26T00:59:05.563Z,0
2017-10-26T01:00:16.089Z,0
2017-10-26T01:01:26.542Z,0
2017-10-26T01:02:37.036Z,0
2017-10-26T01:03:47.482Z,0
2017-10-26T01:04:58.025Z,0
2017-10-26T01:06:08.526Z,0
2017-10-26T01:07:19.011Z,0
2017-10-26T01:08:29.460Z,0
2017-10-26T01:09:40.217Z,0
2017-10-26T01:10:50.662Z,0
2017-10-26T01:12:01.117Z,0
2017-10-26T01:13:11.586Z,0
2017-10-26T01:14:22.094Z,0
2017-10-26T01:15:32.823Z,0
2017-10-26T01:16:43.293Z,0
2017-10-26T01:17:53.730Z,0
2017-10-26T01:19:04.220Z,0
2017-10-26T01:20:14.680Z,0
2017-10-26T01:21:25.213Z,0
2017-10-26T01:22:35.718Z,0
2017-10-26T01:23:46.173Z,0
2017-10-26T01:24:56.659Z,0
2017-10-26T01:26:07.122Z,0
2017-10-26T01:27:17.256Z,0
2017-10-26T01:28:27.730Z,0
2017-10-26T01:29:38.184Z,0
2017-10-26T01:30:48.696Z,0
2017-10-26T01:31:58.835Z,0
2017-10-26T01:33:09.308Z,0
2017-10-26T01:34:19.825Z,0
2017-10-26T01:35:30.279Z,0
2017-10-26T01:36:40.726Z,0
2017-10-26T01:37:51.190Z,0
2017-10-26T01:39:01.715Z,0
2017-10-26T01:40:12.168Z,0
2017-10-26T01:41:22.637Z,0
2017-10-26T01:42:33.133Z,0
2017-10-26T01:43:43.598Z,0
2017-10-26T01:44:54.061Z,0
2017-10-26T01:46:04.178Z,0
2017-10-26T01:47:14.695Z,0
2017-10-26T01:48:25.134Z,0
2017-10-26T01:49:35.881Z,0
2017-10-26T01:50:46.345Z,0
2017-10-26T01:51:57.080Z,0
2017-10-26T01:53:07.522Z,0
2017-10-26T01:54:18.052Z,0
2017-10-26T01:55:28.529Z,0
2017-10-26T01:56:38.991Z,0
2017-10-26T01:57:49.479Z,0
2017-10-26T01:59:00.050Z,0
2017-10-26T02:00:10.669Z,0
2017-10-26T02:01:21.120Z,0
2017-10-26T02:02:31.701Z,0
2017-10-26T02:03:42.162Z,0
2017-10-26T02:04:52.632Z,0
2017-10-26T02:06:03.092Z,0
2017-10-26T02:07:13.587Z,0
2017-10-26T02:08:24.129Z,0
2017-10-26T02:09:34.343Z,0
2017-10-26T02:10:44.777Z,0
2017-10-26T02:11:55.257Z,0
2017-10-26T02:13:05.717Z,0
2017-10-26T02:14:16.186Z,0
2017-10-26T02:15:26.623Z,0
2017-10-26T02:16:37.085Z,0
2017-10-26T02:17:47.551Z,0
2017-10-26T02:18:58.089Z,0
2017-10-26T02:20:08.538Z,0
2017-10-26T02:21:19.088Z,0
2017-10-26T02:22:29.546Z,0
2017-10-26T02:23:40.003Z,0
2017-10-26T02:24:50.453Z,0
2017-10-26T02:26:00.975Z,0
2017-10-26T02:27:10.783Z,0
2017-10-26T02:28:21.221Z,0
2017-10-26T02:29:31.758Z,0
2017-10-26T02:30:42.227Z,0
2017-10-26T02:31:52.894Z,0
2017-10-26T02:33:03.353Z,0
2017-10-26T02:34:13.835Z,0
2017-10-26T02:35:24.334Z,0
2017-10-26T02:36:34.905Z,0
2017-10-26T02:37:45.385Z,0
2017-10-26T02:38:55.831Z,0
2017-10-26T02:40:06.160Z,0
2017-10-26T02:41:16.695Z,0
2017-10-26T02:42:27.179Z,0
2017-10-26T02:43:37.624Z,0
2017-10-26T02:44:48.094Z,0
2017-10-26T02:45:58.589Z,0
2017-10-26T02:47:09.094Z,0
2017-10-26T02:48:19.245Z,0
2017-10-26T02:49:29.742Z,0
2017-10-26T02:50:40.180Z,0
2017-10-26T02:51:50.777Z,0
2017-10-26T02:53:01.317Z,0
2017-10-26T02:54:11.813Z,0
2017-10-26T02:55:22.274Z,0
2017-10-26T02:56:32.788Z,0
2017-10-26T02:57:43.237Z,0
2017-10-26T02:58:53.401Z,0
2017-10-26T03:00:03.862Z,0
2017-10-26T03:01:14.365Z,0
2017-10-26T03:02:24.833Z,0
2017-10-26T03:03:35.297Z,0
2017-10-26T03:04:45.830Z,0
2017-10-26T03:05:56.288Z,0
2017-10-26T03:07:06.718Z,0
2017-10-26T03:08:17.383Z,0
2017-10-26T03:09:27.393Z,0
2017-10-26T03:10:37.895Z,0
2017-10-26T03:11:48.646Z,0
2017-10-26T03:12:59.085Z,0
2017-10-26T03:14:09.554Z,0
2017-10-26T03:15:20.034Z,0
2017-10-26T03:16:30.497Z,0
2017-10-26T03:17:40.963Z,0
2017-10-26T03:18:51.419Z,0
2017-10-26T03:20:02.026Z,0
2017-10-26T03:21:12.474Z,0
2017-10-26T03:22:22.950Z,0
2017-10-26T03:23:33.446Z,0
2017-10-26T03:24:43.474Z,0
2017-10-26T03:25:54.048Z,0
2017-10-26T03:27:04.301Z,0
2017-10-26T03:28:14.419Z,0
2017-10-26T03:29:24.919Z,0
2017-10-26T03:30:35.410Z,0
2017-10-26T03:31:45.850Z,0
2017-10-26T03:32:56.389Z,0
2017-10-26T03:34:06.915Z,0
2017-10-26T03:35:17.364Z,0
2017-10-26T03:36:27.817Z,0
2017-10-26T03:37:38.286Z,0
2017-10-26T03:38:48.315Z,0
2017-10-26T03:39:58.767Z,0
2017-10-26T03:41:09.268Z,0
2017-10-26T03:42:19.720Z,0
2017-10-26T03:43:30.179Z,0
2017-10-26T03:44:40.636Z,0
2017-10-26T03:45:51.116Z,0
2017-10-26T03:47:01.554Z,0
2017-10-26T03:48:12.640Z,0
2017-10-26T03:49:23.089Z,0
2017-10-26T03:50:33.573Z,0
2017-10-26T03:51:44.027Z,0
2017-10-26T03:52:54.478Z,0
2017-10-26T03:54:04.986Z,0
2017-10-26T03:55:15.525Z,0
2017-10-26T03:56:26.020Z,0
2017-10-26T03:57:36.512Z,0
2017-10-26T03:58:46.972Z,0
2017-10-26T03:59:57.132Z,0
2017-10-26T04:01:07.271Z,0
2017-10-26T04:02:17.839Z,0
2017-10-26T04:03:28.395Z,0
2017-10-26T04:04:39.071Z,0
2017-10-26T04:05:49.523Z,0
2017-10-26T04:07:00.002Z,0
2017-10-26T04:08:10.686Z,0
2017-10-26T04:09:21.148Z,0
2017-10-26T04:10:31.564Z,0
2017-10-26T04:11:42.023Z,0
2017-10-26T04:12:52.539Z,0
2017-10-26T04:14:03.000Z,0
2017-10-26T04:15:13.464Z,0
2017-10-26T04:16:23.933Z,0
2017-10-26T04:17:34.406Z,0
2017-10-26T04:18:44.908Z,0
2017-10-26T04:19:55.377Z,0
2017-10-26T04:21:05.844Z,0
2017-10-26T04:22:16.420Z,0
2017-10-26T04:23:26.898Z,0
2017-10-26T04:24:37.349Z,0
2017-10-26T04:25:47.857Z,0
2017-10-26T04:26:58.351Z,0
2017-10-26T04:28:08.847Z,0
2017-10-26T04:29:19.294Z,0
2017-10-26T04:30:29.842Z,0
2017-10-26T04:31:40.435Z,0
2017-10-26T04:32:50.874Z,0
2017-10-26T04:34:01.312Z,0
2017-10-26T04:35:11.483Z,0
2017-10-26T04:36:21.990Z,0
2017-10-26T04:37:32.520Z,0
2017-10-26T04:38:42.982Z,0
2017-10-26T04:39:53.446Z,0
2017-10-26T04:41:03.940Z,0
2017-10-26T04:42:14.431Z,0
2017-10-26T04:43:24.882Z,0
2017-10-26T04:44:35.354Z,0
2017-10-26T04:45:45.833Z,0
2017-10-26T04:46:56.355Z,0
2017-10-26T04:48:06.805Z,0
2017-10-26T04:49:17.330Z,0
2017-10-26T04:50:27.792Z,0
2017-10-26T04:51:38.482Z,0
2017-10-26T04:52:48.941Z,0
2017-10-26T04:53:59.610Z,0
2017-10-26T04:55:10.069Z,0
2017-10-26T04:56:20.550Z,0
2017-10-26T04:57:31.003Z,0
2017-10-26T04:58:41.474Z,0
2017-10-26T04:59:51.958Z,0
2017-10-26T05:01:02.443Z,0
2017-10-26T05:02:13.118Z,0
2017-10-26T05:03:23.277Z,0
2017-10-26T05:04:33.387Z,0
2017-10-26T05:05:43.836Z,0
2017-10-26T05:06:54.310Z,0
2017-10-26T05:08:04.787Z,0
2017-10-26T05:09:15.246Z,0
2017-10-26T05:10:25.755Z,0
2017-10-26T05:11:36.240Z,0
2017-10-26T05:12:46.726Z,0
2017-10-26T05:13:57.251Z,0
2017-10-26T05:15:07.733Z,0
2017-10-26T05:16:18.224Z,0
2017-10-26T05:17:28.685Z,0
2017-10-26T05:18:39.140Z,0
2017-10-26T05:19:49.639Z,0
2017-10-26T05:21:00.165Z,0
2017-10-26T05:22:10.642Z,0
2017-10-26T05:23:21.152Z,0
2017-10-26T05:24:31.592Z,0
2017-10-26T05:25:42.160Z,0
2017-10-26T05:26:52.634Z,0
2017-10-26T05:28:03.072Z,0
2017-10-26T05:29:13.520Z,0
2017-10-26T05:30:24.110Z,0
2017-10-26T05:31:34.582Z,4
2017-10-26T05:32:45.081Z,4
2017-10-26T05:33:55.552Z,0
2017-10-26T05:35:05.669Z,4
2017-10-26T05:36:16.107Z,4
2017-10-26T05:37:26.562Z,4
2017-10-26T05:38:36.593Z,8
2017-10-26T05:39:46.709Z,8
2017-10-26T05:40:57.322Z,8
2017-10-26T05:42:07.798Z,12
2017-10-26T05:43:18.279Z,12
2017-10-26T05:44:28.728Z,12
2017-10-26T05:45:38.887Z,16
2017-10-26T05:46:49.362Z,20
2017-10-26T05:47:59.865Z,20
2017-10-26T05:49:09.767Z,24
2017-10-26T05:50:20.244Z,24
2017-10-26T05:51:30.733Z,28
2017-10-26T05:52:41.177Z,32
2017-10-26T05:53:51.632Z,40
2017-10-26T05:55:02.098Z,44
2017-10-26T05:56:12.639Z,52
2017-10-26T05:57:23.114Z,60
2017-10-26T05:58:33.578Z,68
2017-10-26T05:59:44.263Z,72
2017-10-26T06:00:54.734Z,76
2017-10-26T06:02:05.193Z,84
2017-10-26T06:03:15.658Z,92
2017-10-26T06:04:25.914Z,100
2017-10-26T06:05:36.393Z,112
2017-10-26T06:06:46.952Z,128
2017-10-26T06:07:57.421Z,140
2017-10-26T06:09:07.884Z,164
2017-10-26T06:10:18.600Z,184
2017-10-26T06:11:29.081Z,212
2017-10-26T06:12:39.546Z,232
2017-10-26T06:13:50.028Z,252
2017-10-26T06:15:00.528Z,280
2017-10-26T06:16:10.974Z,320
2017-10-26T06:17:21.771Z,372
2017-10-26T06:18:32.219Z,420
2017-10-26T06:19:42.733Z,452
2017-10-26T06:20:53.229Z,480
2017-10-26T06:22:03.684Z,508
2017-10-26T06:23:14.144Z,532
2017-10-26T06:24:24.607Z,540
2017-10-26T06:25:35.089Z,536
2017-10-26T06:26:45.710Z,548
2017-10-26T06:27:56.190Z,588
2017-10-26T06:29:06.680Z,676
2017-10-26T06:30:17.163Z,780
2017-10-26T06:31:27.311Z,844
2017-10-26T06:32:37.785Z,884
2017-10-26T06:33:48.239Z,936
2017-10-26T06:34:58.796Z,1040
2017-10-26T06:36:09.377Z,1196
2017-10-26T06:37:19.515Z,1400
2017-10-26T06:38:29.656Z,1544
2017-10-26T06:39:40.145Z,1584
2017-10-26T06:40:50.929Z,1580
2017-10-26T06:42:01.418Z,1572
2017-10-26T06:43:11.883Z,1560
2017-10-26T06:44:22.370Z,1540
2017-10-26T06:45:33.064Z,1532
2017-10-26T06:46:43.513Z,1520
2017-10-26T06:47:53.973Z,1508
2017-10-26T06:49:04.527Z,1496
2017-10-26T06:50:15.041Z,1472
2017-10-26T06:51:25.492Z,1480
2017-10-26T06:52:35.942Z,1544
2017-10-26T06:53:46.386Z,1624
2017-10-26T06:54:56.927Z,1692
2017-10-26T06:56:07.395Z,1756
2017-10-26T06:57:17.879Z,1836
2017-10-26T06:58:28.126Z,1924
2017-10-26T06:59:38.645Z,2064
2017-10-26T07:00:49.100Z,2324
2017-10-26T07:01:59.564Z,2048
2017-10-26T07:03:10.300Z,2052
2017-10-26T07:04:20.751Z,2116
2017-10-26T07:05:31.226Z,2092
2017-10-26T07:06:41.714Z,2160
2017-10-26T07:07:52.187Z,2216
2017-10-26T07:09:02.688Z,2284
2017-10-26T07:10:13.187Z,2448
2017-10-26T07:11:23.626Z,3072
2017-10-26T07:12:34.310Z,2744
2017-10-26T07:13:44.868Z,2780
2017-10-26T07:14:55.026Z,2956
2017-10-26T07:16:05.481Z,3132
2017-10-26T07:17:15.945Z,3288
2017-10-26T07:18:26.390Z,3396
2017-10-26T07:19:37.132Z,3488
2017-10-26T07:20:47.619Z,3572
2017-10-26T07:21:58.094Z,3720
2017-10-26T07:23:08.648Z,3892
2017-10-26T07:24:18.783Z,4084
2017-10-26T07:25:29.309Z,4308
2017-10-26T07:26:39.793Z,4504
2017-10-26T07:27:49.903Z,4332
2017-10-26T07:29:00.381Z,4376
2017-10-26T07:30:10.987Z,4668
2017-10-26T07:31:21.548Z,4504
2017-10-26T07:32:32.024Z,5832
2017-10-26T07:33:43.549Z,6836
2017-10-26T07:34:54.097Z,6100
2017-10-26T07:36:04.551Z,4328
2017-10-26T07:37:15.042Z,3856
2017-10-26T07:38:25.613Z,3764
2017-10-26T07:39:36.078Z,3856
2017-10-26T07:40:46.550Z,4168
2017-10-26T07:41:57.100Z,4616
2017-10-26T07:43:07.702Z,5000
2017-10-26T07:44:18.172Z,5196
2017-10-26T07:45:28.419Z,5140
2017-10-26T07:46:38.902Z,5000
2017-10-26T07:47:48.949Z,4884
2017-10-26T07:48:59.419Z,4776
2017-10-26T07:50:09.912Z,4704
2017-10-26T07:51:20.405Z,4724
2017-10-26T07:52:30.551Z,4792
2017-10-26T07:53:41.015Z,4784
2017-10-26T07:54:51.526Z,4932
2017-10-26T07:56:02.020Z,5308
2017-10-26T07:57:12.505Z,5872
2017-10-26T07:58:23.004Z,6640
2017-10-26T07:59:33.456Z,6664
2017-10-26T08:00:43.959Z,6916
2017-10-26T08:01:54.432Z,6964
2017-10-26T08:03:04.885Z,7196
2017-10-26T08:04:15.605Z,8224
2017-10-26T08:05:27.085Z,11536
2017-10-26T08:06:37.589Z,17056
2017-10-26T08:07:48.139Z,18304
2017-10-26T08:08:58.611Z,21504
2017-10-26T08:10:09.105Z,25920
2017-10-26T08:11:19.616Z,26496
2017-10-26T08:12:30.097Z,17792
2017-10-26T08:13:40.570Z,16032
2017-10-26T08:14:51.025Z,12392
2017-10-26T08:16:01.523Z,9264
2017-10-26T08:17:12.048Z,11600
2017-10-26T08:18:22.560Z,16256
2017-10-26T08:19:33.040Z,18400
2017-10-26T08:20:43.231Z,18784
2017-10-26T08:21:53.940Z,26336
2017-10-26T08:23:04.406Z,28416
2017-10-26T08:24:14.923Z,26400
2017-10-26T08:25:25.434Z,25824
2017-10-26T08:26:35.923Z,24992
2017-10-26T08:27:46.103Z,21120
2017-10-26T08:28:56.610Z,25632
2017-10-26T08:30:07.131Z,27424
2017-10-26T08:31:17.622Z,29728
2017-10-26T08:32:28.167Z,27264
2017-10-26T08:33:38.680Z,29760
2017-10-26T08:34:49.299Z,33216
2017-10-26T08:35:59.809Z,33376
2017-10-26T08:37:10.289Z,34176
2017-10-26T08:38:20.433Z,36832
2017-10-26T08:39:31.015Z,34432
2017-10-26T08:40:41.482Z,31680
2017-10-26T08:41:51.977Z,35296
2017-10-26T08:43:02.478Z,33184
2017-10-26T08:44:12.516Z,33312
2017-10-26T08:45:23.017Z,28160
2017-10-26T08:46:33.467Z,29536
2017-10-26T08:47:43.955Z,27360
2017-10-26T08:48:54.437Z,36768
2017-10-26T08:50:04.949Z,33184
2017-10-26T08:51:15.132Z,37856
2017-10-26T08:52:25.643Z,32800
2017-10-26T08:53:35.785Z,24992
2017-10-26T08:54:46.269Z,29760
2017-10-26T08:55:56.769Z,25632
2017-10-26T08:57:07.237Z,20288
2017-10-26T08:58:17.333Z,36992
2017-10-26T08:59:27.791Z,28096
2017-10-26T09:00:38.490Z,25536
2017-10-26T09:01:48.998Z,18016
2017-10-26T09:02:59.504Z,19616
2017-10-26T09:04:09.690Z,16288
2017-10-26T09:05:20.529Z,13188
2017-10-26T09:06:31.219Z,11908
2017-10-26T09:07:41.700Z,11252
2017-10-26T09:08:52.230Z,10796
2017-10-26T09:10:02.682Z,9936
2017-10-26T09:11:13.163Z,9248
2017-10-26T09:12:23.676Z,8268
2017-10-26T09:13:34.178Z,7944
2017-10-26T09:14:44.623Z,7276
2017-10-26T09:15:55.099Z,7040
2017-10-26T09:17:05.627Z,7720
2017-10-26T09:18:16.102Z,11936
2017-10-26T09:19:26.597Z,8952
2017-10-26T09:20:37.081Z,8944
2017-10-26T09:21:47.626Z,10816
2017-10-26T09:22:58.086Z,9080
2017-10-26T09:24:08.574Z,8768
2017-10-26T09:25:19.059Z,8940
2017-10-26T09:26:29.536Z,9180
2017-10-26T09:27:40.032Z,9568
2017-10-26T09:28:50.174Z,9988
2017-10-26T09:30:00.657Z,10676
2017-10-26T09:31:11.340Z,11928
2017-10-26T09:32:21.814Z,13360
2017-10-26T09:33:32.273Z,14720
2017-10-26T09:34:42.590Z,16320
2017-10-26T09:35:53.082Z,18592
2017-10-26T09:37:03.218Z,22560
2017-10-26T09:38:13.285Z,16096
2017-10-26T09:39:23.774Z,14276
2017-10-26T09:40:34.337Z,12924
2017-10-26T09:41:44.475Z,12124
2017-10-26T09:42:54.991Z,11828
2017-10-26T09:44:05.559Z,10744
2017-10-26T09:45:16.033Z,10020
2017-10-26T09:46:26.722Z,10048
2017-10-26T09:47:37.253Z,10108
2017-10-26T09:48:47.837Z,10212
2017-10-26T09:49:58.359Z,10380
2017-10-26T09:51:08.868Z,10560
2017-10-26T09:52:19.397Z,10756
2017-10-26T09:53:29.901Z,10796
2017-10-26T09:54:41.405Z,10680
2017-10-26T09:55:51.978Z,10812
2017-10-26T09:57:02.562Z,11452
2017-10-26T09:58:13.105Z,12264
2017-10-26T09:59:23.581Z,11744
2017-10-26T10:00:34.067Z,11952
2017-10-26T10:01:44.761Z,11840
2017-10-26T10:02:55.285Z,11868
2017-10-26T10:04:05.438Z,11512
2017-10-26T10:05:15.879Z,11680
2017-10-26T10:06:26.587Z,12228
2017-10-26T10:07:37.118Z,13104
2017-10-26T10:08:47.587Z,14944
2017-10-26T10:09:58.046Z,16576
2017-10-26T10:11:08.560Z,15648
2017-10-26T10:12:19.030Z,16736
2017-10-26T10:13:29.538Z,18048
2017-10-26T10:14:40.238Z,20032
2017-10-26T10:15:50.737Z,18848
2017-10-26T10:17:01.206Z,17056
2017-10-26T10:18:11.724Z,15296
2017-10-26T10:19:22.289Z,15904
2017-10-26T10:20:32.791Z,14944
2017-10-26T10:21:43.363Z,14400
2017-10-26T10:22:53.941Z,14976
2017-10-26T10:24:04.434Z,15488
2017-10-26T10:25:15.028Z,17120
2017-10-26T10:26:25.561Z,18432
2017-10-26T10:27:36.048Z,18016
2017-10-26T10:28:46.522Z,16672
2017-10-26T10:29:56.987Z,16256
2017-10-26T10:31:07.581Z,16832
2017-10-26T10:32:18.129Z,16608
2017-10-26T10:33:28.575Z,17216
2017-10-26T10:34:39.042Z,15296
2017-10-26T10:35:49.495Z,16128
2017-10-26T10:36:59.998Z,15232
2017-10-26T10:38:10.484Z,14688
2017-10-26T10:39:21.005Z,13548
2017-10-26T10:40:31.558Z,12804
2017-10-26T10:41:42.048Z,12564
2017-10-26T10:42:52.601Z,13412
2017-10-26T10:44:03.067Z,14720
2017-10-26T10:45:13.559Z,16064
2017-10-26T10:46:23.873Z,17184
2017-10-26T10:47:34.367Z,16576
2017-10-26T10:48:44.857Z,17056
2017-10-26T10:49:55.012Z,15584
2017-10-26T10:51:05.551Z,13792
2017-10-26T10:52:16.030Z,13816
2017-10-26T10:53:26.553Z,12888
2017-10-26T10:54:37.035Z,12352
2017-10-26T10:55:47.632Z,11992
2017-10-26T10:56:58.382Z,11780
2017-10-26T10:58:08.714Z,12072
2017-10-26T10:59:19.273Z,12320
2017-10-26T11:00:29.775Z,12628
2017-10-26T11:01:40.236Z,12632
2017-10-26T11:02:50.712Z,12580
2017-10-26T11:04:01.203Z,12292
2017-10-26T11:05:11.693Z,11908
2017-10-26T11:06:22.167Z,11636
2017-10-26T11:07:32.782Z,11460
2017-10-26T11:08:43.274Z,9704
2017-10-26T11:09:53.781Z,10488
2017-10-26T11:11:04.296Z,9284
2017-10-26T11:12:14.812Z,9016
2017-10-26T11:13:25.294Z,9756
2017-10-26T11:14:35.865Z,9188
2017-10-26T11:15:46.328Z,9244
2017-10-26T11:16:56.509Z,9568
2017-10-26T11:18:07.017Z,10456
2017-10-26T11:19:17.497Z,11420
2017-10-26T11:20:27.630Z,12012
2017-10-26T11:21:38.179Z,11832
2017-10-26T11:22:48.642Z,11204
2017-10-26T11:23:59.145Z,10276
2017-10-26T11:25:09.630Z,9776
2017-10-26T11:26:20.140Z,10184
2017-10-26T11:27:30.848Z,11748
2017-10-26T11:28:41.356Z,13028
2017-10-26T11:29:51.904Z,14108
2017-10-26T11:31:02.396Z,13804
2017-10-26T11:32:12.861Z,11944
2017-10-26T11:33:23.317Z,11844
2017-10-26T11:34:33.785Z,12648
2017-10-26T11:35:44.291Z,14100
2017-10-26T11:36:54.745Z,16672
2017-10-26T11:38:05.429Z,15328
2017-10-26T11:39:16.964Z,10772
2017-10-26T11:40:27.503Z,9052
2017-10-26T11:41:37.984Z,7620
2017-10-26T11:42:48.128Z,6372
2017-10-26T11:43:58.603Z,6020
2017-10-26T11:45:09.088Z,6236
2017-10-26T11:46:19.178Z,7920
2017-10-26T11:47:29.664Z,9356
2017-10-26T11:48:40.150Z,9976
2017-10-26T11:49:50.642Z,12076
2017-10-26T11:51:01.129Z,14260
2017-10-26T11:52:11.607Z,16672
2017-10-26T11:53:22.322Z,17568
2017-10-26T11:54:32.779Z,17088
2017-10-26T11:55:43.243Z,19488
2017-10-26T11:56:53.739Z,16736
2017-10-26T11:58:04.218Z,18176
2017-10-26T11:59:14.735Z,14408
2017-10-26T12:00:25.205Z,15296
2017-10-26T12:01:35.755Z,21152
2017-10-26T12:02:46.251Z,18496
2017-10-26T12:03:56.980Z,23104
2017-10-26T12:05:07.487Z,16992
2017-10-26T12:06:18.026Z,15040
2017-10-26T12:07:28.518Z,12468
2017-10-26T12:08:38.987Z,11472
2017-10-26T12:09:49.178Z,11884
2017-10-26T12:10:59.673Z,14100
2017-10-26T12:12:10.357Z,15040
2017-10-26T12:13:20.891Z,18944
2017-10-26T12:14:31.446Z,17632
2017-10-26T12:15:41.916Z,13496
2017-10-26T12:16:52.379Z,11568
2017-10-26T12:18:03.870Z,11244
2017-10-26T12:19:14.359Z,11832
2017-10-26T12:20:24.867Z,12548
2017-10-26T12:21:35.370Z,13356
2017-10-26T12:22:45.875Z,14000
2017-10-26T12:23:56.330Z,15008
2017-10-26T12:25:06.835Z,14752
2017-10-26T12:26:17.473Z,13932
2017-10-26T12:27:27.976Z,11564
2017-10-26T12:28:38.533Z,10452
2017-10-26T12:29:49.016Z,10548
2017-10-26T12:30:59.481Z,11380
2017-10-26T12:32:10.051Z,18048
2017-10-26T12:33:20.543Z,24416
2017-10-26T12:34:30.682Z,13480
2017-10-26T12:35:41.178Z,12036
2017-10-26T12:36:51.697Z,10752
2017-10-26T12:38:02.210Z,9624
2017-10-26T12:39:12.433Z,9204
2017-10-26T12:40:22.962Z,9104
2017-10-26T12:41:33.970Z,8964
2017-10-26T12:42:44.757Z,8544
2017-10-26T12:43:55.264Z,8024
2017-10-26T12:45:05.405Z,7728
2017-10-26T12:46:16.189Z,7608
2017-10-26T12:47:26.633Z,7796
2017-10-26T12:48:37.268Z,7864
2017-10-26T12:49:47.940Z,7436
2017-10-26T12:50:58.078Z,7064
2017-10-26T12:52:08.589Z,7152
2017-10-26T12:53:19.096Z,7864
2017-10-26T12:54:29.651Z,9252
2017-10-26T12:55:40.156Z,11104
2017-10-26T12:56:50.630Z,12236
2017-10-26T12:58:01.364Z,13200
2017-10-26T12:59:12.044Z,13612
2017-10-26T13:00:23.135Z,16320
2017-10-26T13:01:33.665Z,18592
2017-10-26T13:02:44.155Z,18816
2017-10-26T13:03:54.872Z,14056
2017-10-26T13:05:05.372Z,16160
2017-10-26T13:06:16.045Z,13472
2017-10-26T13:07:26.742Z,23360
2017-10-26T13:08:37.304Z,20576
2017-10-26T13:09:47.523Z,14168
2017-10-26T13:10:58.101Z,14656
2017-10-26T13:12:08.566Z,11636
2017-10-26T13:13:19.113Z,10596
2017-10-26T13:14:29.583Z,9184
2017-10-26T13:15:40.179Z,7916
2017-10-26T13:16:50.652Z,7536
2017-10-26T13:18:01.384Z,7140
2017-10-26T13:19:11.457Z,6472
2017-10-26T13:20:22.018Z,6820
2017-10-26T13:21:32.543Z,6852
2017-10-26T13:22:43.421Z,6556
2017-10-26T13:23:53.569Z,6276
2017-10-26T13:25:04.143Z,5940
2017-10-26T13:26:15.432Z,5464
2017-10-26T13:27:26.883Z,5696
2017-10-26T13:28:37.488Z,5600
2017-10-26T13:29:47.990Z,5152
2017-10-26T13:30:58.519Z,5280
2017-10-26T13:32:09.104Z,6372
2017-10-26T13:33:19.148Z,6788
2017-10-26T13:34:29.621Z,6924
2017-10-26T13:35:40.211Z,7320
2017-10-26T13:36:50.688Z,7568
2017-10-26T13:38:01.194Z,7588
2017-10-26T13:39:11.333Z,7324
2017-10-26T13:40:21.833Z,6984
2017-10-26T13:41:32.303Z,6304
2017-10-26T13:42:42.791Z,5524
2017-10-26T13:43:53.285Z,5068
2017-10-26T13:45:03.834Z,5932
2017-10-26T13:46:14.361Z,7644
2017-10-26T13:47:24.925Z,7404
2017-10-26T13:48:35.413Z,7052
2017-10-26T13:49:45.901Z,7004
2017-10-26T13:50:56.416Z,7444
2017-10-26T13:52:06.938Z,7392
2017-10-26T13:53:17.407Z,6968
2017-10-26T13:54:27.979Z,6416
2017-10-26T13:55:38.458Z,6248
2017-10-26T13:56:49.023Z,5988
2017-10-26T13:57:59.514Z,5588
2017-10-26T13:59:10.005Z,5116
2017-10-26T14:00:20.632Z,4740
2017-10-26T14:01:31.103Z,4480
2017-10-26T14:02:41.738Z,4492
2017-10-26T14:03:52.277Z,4244
2017-10-26T14:05:02.732Z,3976
2017-10-26T14:06:13.271Z,3720
2017-10-26T14:07:23.774Z,3396
2017-10-26T14:08:34.261Z,3080
2017-10-26T14:09:44.783Z,2896
2017-10-26T14:10:55.239Z,2700
2017-10-26T14:12:05.777Z,2332
2017-10-26T14:13:16.282Z,2052
2017-10-26T14:14:26.791Z,2208
2017-10-26T14:15:37.279Z,2560
2017-10-26T14:16:47.758Z,2236
2017-10-26T14:17:58.280Z,2284
2017-10-26T14:19:08.343Z,3144
2017-10-26T14:20:18.829Z,3228
2017-10-26T14:21:29.345Z,2704
2017-10-26T14:22:40.177Z,2236
2017-10-26T14:23:50.652Z,1832
2017-10-26T14:25:01.168Z,1644
2017-10-26T14:26:11.658Z,1768
2017-10-26T14:27:22.189Z,2032
2017-10-26T14:28:32.687Z,2588
2017-10-26T14:29:43.160Z,2864
2017-10-26T14:30:53.676Z,3176
2017-10-26T14:32:04.239Z,3736
2017-10-26T14:33:14.720Z,4228
2017-10-26T14:34:25.247Z,4384
2017-10-26T14:35:35.777Z,4240
2017-10-26T14:36:46.324Z,3708
2017-10-26T14:37:56.559Z,3096
2017-10-26T14:39:07.043Z,3056
2017-10-26T14:40:17.724Z,3820
2017-10-26T14:41:28.347Z,4740
2017-10-26T14:42:38.883Z,5120
2017-10-26T14:43:49.105Z,4704
2017-10-26T14:44:59.579Z,3996
2017-10-26T14:46:10.123Z,3284
2017-10-26T14:47:20.866Z,2704
2017-10-26T14:48:31.422Z,2332
2017-10-26T14:49:41.904Z,2076
2017-10-26T14:50:52.437Z,1920
2017-10-26T14:52:02.959Z,1828
2017-10-26T14:53:13.459Z,1676
2017-10-26T14:54:24.482Z,1696
2017-10-26T14:55:34.667Z,1776
2017-10-26T14:56:45.447Z,1764
2017-10-26T14:57:55.920Z,1700
2017-10-26T14:59:06.417Z,1608
2017-10-26T15:00:17.029Z,1500
2017-10-26T15:01:27.512Z,1380
2017-10-26T15:02:38.012Z,1276
2017-10-26T15:03:48.487Z,1240
2017-10-26T15:04:59.039Z,1412
2017-10-26T15:06:09.521Z,1660
2017-10-26T15:07:20.067Z,1740
2017-10-26T15:08:30.627Z,1724
2017-10-26T15:09:41.221Z,1484
2017-10-26T15:10:51.751Z,1168
2017-10-26T15:12:02.374Z,944
2017-10-26T15:13:12.995Z,908
2017-10-26T15:14:23.485Z,1000
2017-10-26T15:15:34.305Z,1020
2017-10-26T15:16:44.456Z,1016
2017-10-26T15:17:54.575Z,968
2017-10-26T15:19:05.105Z,908
2017-10-26T15:20:15.581Z,864
2017-10-26T15:21:26.234Z,828
2017-10-26T15:22:36.736Z,800
2017-10-26T15:23:47.232Z,768
2017-10-26T15:24:57.783Z,724
2017-10-26T15:26:08.286Z,696
2017-10-26T15:27:18.828Z,668
2017-10-26T15:28:29.094Z,652
2017-10-26T15:29:39.631Z,624
2017-10-26T15:30:50.133Z,576
2017-10-26T15:32:00.630Z,532
2017-10-26T15:33:11.248Z,508
2017-10-26T15:34:21.771Z,492
2017-10-26T15:35:32.260Z,492
2017-10-26T15:36:42.792Z,500
2017-10-26T15:37:53.339Z,500
2017-10-26T15:39:03.856Z,492
2017-10-26T15:40:14.012Z,464
2017-10-26T15:41:24.592Z,428
2017-10-26T15:42:35.060Z,388
2017-10-26T15:43:45.222Z,352
2017-10-26T15:44:55.395Z,320
2017-10-26T15:46:05.889Z,292
2017-10-26T15:47:16.301Z,264
2017-10-26T15:48:26.904Z,236
2017-10-26T15:49:37.482Z,208
2017-10-26T15:50:48.033Z,184
2017-10-26T15:51:58.534Z,164
2017-10-26T15:53:09.061Z,144
2017-10-26T15:54:19.596Z,128
2017-10-26T15:55:30.119Z,112
2017-10-26T15:56:40.589Z,100
2017-10-26T15:57:51.186Z,92
2017-10-26T15:59:01.671Z,84
2017-10-26T16:00:12.465Z,72
2017-10-26T16:01:23.013Z,64
2017-10-26T16:02:33.521Z,56
2017-10-26T16:03:44.042Z,44
2017-10-26T16:04:54.587Z,40
2017-10-26T16:06:05.423Z,36
2017-10-26T16:07:15.916Z,28
2017-10-26T16:08:26.478Z,28